sensor_id;sensor_type;location;lat;lon;timestamp;temperature;humidity
5128;DHT22;2582;48.770;9.190;2023-08-07T00:01:30;13.60;99.90
5128;DHT22;2582;48.770;9.190;2023-08-07T00:03:55;13.60;99.90
5128;DHT22;2582;48.770;9.190;2023-08-07T00:06:21;13.50;99.90
5128;DHT22;2582;48.770;9.190;2023-08-07T00:08:47;13.70;99.90
5128;DHT22;2582;48.770;9.190;2023-08-07T00:11:12;13.60;99.90
5128;DHT22;2582;48.770;9.190;2023-08-07T00:13:38;13.70;99.90
5128;DHT22;2582;48.770;9.190;2023-08-07T00:16:03;13.70;99.90
5128;DHT22;2582;48.770;9.190;2023-08-07T00:18:29;13.60;99.90
5128;DHT22;2582;48.770;9.190;2023-08-07T00:20:55;13.60;99.90
5128;DHT22;2582;48.770;9.190;2023-08-07T00:23:20;13.50;99.90
5128;DHT22;2582;48.770;9.190;2023-08-07T00:25:46;13.60;99.90
5128;DHT22;2582;48.770;9.190;2023-08-07T00:28:12;13.60;99.90
5128;DHT22;2582;48.770;9.190;2023-08-07T00:30:38;13.60;99.90
5128;DHT22;2582;48.770;9.190;2023-08-07T00:33:03;13.60;99.90
5128;DHT22;2582;48.770;9.190;2023-08-07T00:35:29;13.60;99.90
5128;DHT22;2582;48.770;9.190;2023-08-07T00:37:54;13.70;99.90
5128;DHT22;2582;48.770;9.190;2023-08-07T00:40:20;13.80;99.90
5128;DHT22;2582;48.770;9.190;2023-08-07T00:42:45;13.70;99.90
5128;DHT22;2582;48.770;9.190;2023-08-07T00:45:11;13.70;99.90
5128;DHT22;2582;48.770;9.190;2023-08-07T00:47:37;13.80;99.90
5128;DHT22;2582;48.770;9.190;2023-08-07T00:50:04;13.60;99.90
5128;DHT22;2582;48.770;9.190;2023-08-07T00:52:30;13.70;99.90
5128;DHT22;2582;48.770;9.190;2023-08-07T00:54:56;13.80;99.90
5128;DHT22;2582;48.770;9.190;2023-08-07T00:57:22;13.70;99.90
5128;DHT22;2582;48.770;9.190;2023-08-07T00:59:50;13.80;99.90
5128;DHT22;2582;48.770;9.190;2023-08-07T01:02:15;13.90;99.90
5128;DHT22;2582;48.770;9.190;2023-08-07T01:04:42;13.90;99.90
5128;DHT22;2582;48.770;9.190;2023-08-07T01:07:07;13.80;99.90
5128;DHT22;2582;48.770;9.190;2023-08-07T01:09:33;13.80;99.90
5128;DHT22;2582;48.770;9.190;2023-08-07T01:12:21;13.90;99.90
5128;DHT22;2582;48.770;9.190;2023-08-07T01:15:02;14.00;99.90
5128;DHT22;2582;48.770;9.190;2023-08-07T01:17:29;14.10;99.90
5128;DHT22;2582;48.770;9.190;2023-08-07T01:19:55;14.00;99.90
5128;DHT22;2582;48.770;9.190;2023-08-07T01:22:22;14.10;99.90
5128;DHT22;2582;48.770;9.190;2023-08-07T01:24:50;14.00;99.90
5128;DHT22;2582;48.770;9.190;2023-08-07T01:32:26;13.80;99.90
5128;DHT22;2582;48.770;9.190;2023-08-07T01:34:54;13.70;99.90
5128;DHT22;2582;48.770;9.190;2023-08-07T01:37:21;13.60;99.90
5128;DHT22;2582;48.770;9.190;2023-08-07T01:39:49;13.70;99.90
5128;DHT22;2582;48.770;9.190;2023-08-07T01:42:16;13.80;99.90
5128;DHT22;2582;48.770;9.190;2023-08-07T01:44:41;13.90;99.90
5128;DHT22;2582;48.770;9.190;2023-08-07T01:47:07;14.00;99.90
5128;DHT22;2582;48.770;9.190;2023-08-07T01:49:32;13.90;99.90
5128;DHT22;2582;48.770;9.190;2023-08-07T01:51:58;13.80;99.90
5128;DHT22;2582;48.770;9.190;2023-08-07T01:54:24;13.80;99.90
5128;DHT22;2582;48.770;9.190;2023-08-07T01:56:49;13.80;99.90
5128;DHT22;2582;48.770;9.190;2023-08-07T01:59:15;13.80;99.90
5128;DHT22;2582;48.770;9.190;2023-08-07T02:01:40;13.80;99.90
5128;DHT22;2582;48.770;9.190;2023-08-07T02:04:06;13.80;99.90
5128;DHT22;2582;48.770;9.190;2023-08-07T02:06:32;13.80;99.90
5128;DHT22;2582;48.770;9.190;2023-08-07T02:08:57;13.80;99.90
5128;DHT22;2582;48.770;9.190;2023-08-07T02:11:23;13.70;99.90
5128;DHT22;2582;48.770;9.190;2023-08-07T02:13:49;13.70;99.90
5128;DHT22;2582;48.770;9.190;2023-08-07T02:16:14;13.70;99.90
5128;DHT22;2582;48.770;9.190;2023-08-07T02:18:40;13.80;99.90
5128;DHT22;2582;48.770;9.190;2023-08-07T02:21:05;13.80;99.90
5128;DHT22;2582;48.770;9.190;2023-08-07T02:23:31;13.80;99.90
5128;DHT22;2582;48.770;9.190;2023-08-07T02:25:56;13.90;99.90
5128;DHT22;2582;48.770;9.190;2023-08-07T02:28:22;13.80;99.90
5128;DHT22;2582;48.770;9.190;2023-08-07T02:30:47;13.90;99.90
5128;DHT22;2582;48.770;9.190;2023-08-07T02:33:16;13.90;99.90
5128;DHT22;2582;48.770;9.190;2023-08-07T02:35:42;13.90;99.90
5128;DHT22;2582;48.770;9.190;2023-08-07T02:38:07;13.90;99.90
5128;DHT22;2582;48.770;9.190;2023-08-07T02:40:33;13.90;99.90
5128;DHT22;2582;48.770;9.190;2023-08-07T02:42:58;13.80;99.90
5128;DHT22;2582;48.770;9.190;2023-08-07T02:45:24;13.80;99.90
5128;DHT22;2582;48.770;9.190;2023-08-07T02:47:49;13.70;99.90
5128;DHT22;2582;48.770;9.190;2023-08-07T02:50:15;13.70;99.90
5128;DHT22;2582;48.770;9.190;2023-08-07T02:52:41;13.60;99.90
5128;DHT22;2582;48.770;9.190;2023-08-07T02:55:06;13.60;99.90
5128;DHT22;2582;48.770;9.190;2023-08-07T02:57:32;13.60;99.90
5128;DHT22;2582;48.770;9.190;2023-08-07T02:59:58;13.50;99.90
5128;DHT22;2582;48.770;9.190;2023-08-07T03:02:23;13.40;99.90
5128;DHT22;2582;48.770;9.190;2023-08-07T03:04:49;13.50;99.90
5128;DHT22;2582;48.770;9.190;2023-08-07T03:07:14;13.60;99.90
5128;DHT22;2582;48.770;9.190;2023-08-07T03:09:40;13.50;99.90
5128;DHT22;2582;48.770;9.190;2023-08-07T03:12:06;13.50;99.90
5128;DHT22;2582;48.770;9.190;2023-08-07T03:14:32;13.40;99.90
5128;DHT22;2582;48.770;9.190;2023-08-07T03:16:57;13.40;99.90
5128;DHT22;2582;48.770;9.190;2023-08-07T03:19:23;13.40;99.90
5128;DHT22;2582;48.770;9.190;2023-08-07T03:21:49;13.40;99.90
5128;DHT22;2582;48.770;9.190;2023-08-07T03:24:14;13.30;99.90
5128;DHT22;2582;48.770;9.190;2023-08-07T03:26:40;13.30;99.90
5128;DHT22;2582;48.770;9.190;2023-08-07T03:29:06;13.30;99.90
5128;DHT22;2582;48.770;9.190;2023-08-07T03:31:31;13.30;99.90
5128;DHT22;2582;48.770;9.190;2023-08-07T03:33:57;13.30;99.90
5128;DHT22;2582;48.770;9.190;2023-08-07T03:36:23;13.30;99.90
5128;DHT22;2582;48.770;9.190;2023-08-07T03:38:49;13.30;99.90
5128;DHT22;2582;48.770;9.190;2023-08-07T03:41:14;13.30;99.90
5128;DHT22;2582;48.770;9.190;2023-08-07T03:43:40;13.30;99.90
5128;DHT22;2582;48.770;9.190;2023-08-07T03:46:06;13.30;99.90
5128;DHT22;2582;48.770;9.190;2023-08-07T03:48:31;13.30;99.90
5128;DHT22;2582;48.770;9.190;2023-08-07T03:51:06;13.20;99.90
5128;DHT22;2582;48.770;9.190;2023-08-07T03:53:36;13.30;99.90
5128;DHT22;2582;48.770;9.190;2023-08-07T03:56:02;13.30;99.90
5128;DHT22;2582;48.770;9.190;2023-08-07T03:58:27;13.30;99.90
5128;DHT22;2582;48.770;9.190;2023-08-07T04:00:53;13.30;99.90
5128;DHT22;2582;48.770;9.190;2023-08-07T04:03:20;13.20;99.90
5128;DHT22;2582;48.770;9.190;2023-08-07T04:05:45;13.20;99.90
5128;DHT22;2582;48.770;9.190;2023-08-07T04:08:11;13.20;99.90
5128;DHT22;2582;48.770;9.190;2023-08-07T04:10:36;13.20;99.90
5128;DHT22;2582;48.770;9.190;2023-08-07T04:13:02;13.20;99.90
5128;DHT22;2582;48.770;9.190;2023-08-07T04:15:27;13.20;99.90
5128;DHT22;2582;48.770;9.190;2023-08-07T04:17:53;13.20;99.90
5128;DHT22;2582;48.770;9.190;2023-08-07T04:20:18;13.20;99.90
5128;DHT22;2582;48.770;9.190;2023-08-07T04:22:45;13.20;99.90
5128;DHT22;2582;48.770;9.190;2023-08-07T04:25:12;13.20;99.90
5128;DHT22;2582;48.770;9.190;2023-08-07T04:27:37;13.10;99.90
5128;DHT22;2582;48.770;9.190;2023-08-07T04:30:05;13.10;99.90
5128;DHT22;2582;48.770;9.190;2023-08-07T04:32:30;13.20;99.90
5128;DHT22;2582;48.770;9.190;2023-08-07T04:34:56;13.30;99.90
5128;DHT22;2582;48.770;9.190;2023-08-07T04:37:22;13.20;99.90
5128;DHT22;2582;48.770;9.190;2023-08-07T04:39:47;13.30;99.90
5128;DHT22;2582;48.770;9.190;2023-08-07T04:42:13;13.30;99.90
5128;DHT22;2582;48.770;9.190;2023-08-07T04:44:38;13.40;99.90
5128;DHT22;2582;48.770;9.190;2023-08-07T04:47:04;13.50;99.90
5128;DHT22;2582;48.770;9.190;2023-08-07T04:49:30;13.50;99.90
5128;DHT22;2582;48.770;9.190;2023-08-07T04:51:56;13.50;99.90
5128;DHT22;2582;48.770;9.190;2023-08-07T04:54:21;13.60;99.90
5128;DHT22;2582;48.770;9.190;2023-08-07T04:56:47;13.50;99.90
5128;DHT22;2582;48.770;9.190;2023-08-07T04:59:12;13.70;99.90
5128;DHT22;2582;48.770;9.190;2023-08-07T05:01:38;13.70;99.90
5128;DHT22;2582;48.770;9.190;2023-08-07T05:04:04;13.70;99.90
5128;DHT22;2582;48.770;9.190;2023-08-07T05:06:30;13.60;99.90
5128;DHT22;2582;48.770;9.190;2023-08-07T05:08:56;13.60;99.90
5128;DHT22;2582;48.770;9.190;2023-08-07T05:11:22;13.60;99.90
5128;DHT22;2582;48.770;9.190;2023-08-07T05:13:47;13.70;99.90
5128;DHT22;2582;48.770;9.190;2023-08-07T05:16:13;13.80;99.90
5128;DHT22;2582;48.770;9.190;2023-08-07T05:18:38;13.70;99.90
5128;DHT22;2582;48.770;9.190;2023-08-07T05:21:04;13.70;99.90
5128;DHT22;2582;48.770;9.190;2023-08-07T05:23:29;13.80;99.90
5128;DHT22;2582;48.770;9.190;2023-08-07T05:25:55;13.80;99.90
5128;DHT22;2582;48.770;9.190;2023-08-07T05:28:21;13.90;99.90
5128;DHT22;2582;48.770;9.190;2023-08-07T05:30:46;14.00;99.90
5128;DHT22;2582;48.770;9.190;2023-08-07T05:33:12;13.90;99.90
5128;DHT22;2582;48.770;9.190;2023-08-07T05:35:40;14.00;99.90
5128;DHT22;2582;48.770;9.190;2023-08-07T05:38:05;14.00;99.90
5128;DHT22;2582;48.770;9.190;2023-08-07T05:40:31;13.90;99.90
5128;DHT22;2582;48.770;9.190;2023-08-07T05:42:56;14.10;99.90
5128;DHT22;2582;48.770;9.190;2023-08-07T05:45:22;14.20;99.90
5128;DHT22;2582;48.770;9.190;2023-08-07T05:47:47;14.30;99.90
5128;DHT22;2582;48.770;9.190;2023-08-07T05:50:13;14.20;99.90
5128;DHT22;2582;48.770;9.190;2023-08-07T05:52:38;14.20;99.90
5128;DHT22;2582;48.770;9.190;2023-08-07T05:55:04;14.40;99.90
5128;DHT22;2582;48.770;9.190;2023-08-07T05:57:30;14.40;99.90
5128;DHT22;2582;48.770;9.190;2023-08-07T05:59:56;14.60;99.90
5128;DHT22;2582;48.770;9.190;2023-08-07T06:02:21;14.60;99.90
5128;DHT22;2582;48.770;9.190;2023-08-07T06:04:47;14.60;99.90
5128;DHT22;2582;48.770;9.190;2023-08-07T06:07:13;14.50;99.90
5128;DHT22;2582;48.770;9.190;2023-08-07T06:09:39;14.50;99.90
5128;DHT22;2582;48.770;9.190;2023-08-07T06:12:05;14.50;99.90
5128;DHT22;2582;48.770;9.190;2023-08-07T06:14:30;14.60;99.90
5128;DHT22;2582;48.770;9.190;2023-08-07T06:16:56;14.60;99.90
5128;DHT22;2582;48.770;9.190;2023-08-07T06:19:23;14.80;99.90
5128;DHT22;2582;48.770;9.190;2023-08-07T06:21:49;14.70;99.90
5128;DHT22;2582;48.770;9.190;2023-08-07T06:24:14;14.60;99.90
5128;DHT22;2582;48.770;9.190;2023-08-07T06:26:40;14.60;99.90
5128;DHT22;2582;48.770;9.190;2023-08-07T06:29:05;14.70;99.90
5128;DHT22;2582;48.770;9.190;2023-08-07T06:31:31;14.70;99.90
5128;DHT22;2582;48.770;9.190;2023-08-07T06:33:56;14.80;99.90
5128;DHT22;2582;48.770;9.190;2023-08-07T06:36:25;14.90;99.90
5128;DHT22;2582;48.770;9.190;2023-08-07T06:38:51;14.90;99.90
5128;DHT22;2582;48.770;9.190;2023-08-07T06:41:16;14.90;99.90
5128;DHT22;2582;48.770;9.190;2023-08-07T06:43:42;14.80;99.90
5128;DHT22;2582;48.770;9.190;2023-08-07T06:46:07;14.80;99.90
5128;DHT22;2582;48.770;9.190;2023-08-07T06:48:33;14.90;99.90
5128;DHT22;2582;48.770;9.190;2023-08-07T06:50:58;15.00;99.90
5128;DHT22;2582;48.770;9.190;2023-08-07T06:53:24;15.10;99.90
5128;DHT22;2582;48.770;9.190;2023-08-07T06:55:50;15.20;99.90
5128;DHT22;2582;48.770;9.190;2023-08-07T06:58:15;15.30;99.90
5128;DHT22;2582;48.770;9.190;2023-08-07T07:00:41;15.30;99.90
5128;DHT22;2582;48.770;9.190;2023-08-07T07:03:06;15.40;99.90
5128;DHT22;2582;48.770;9.190;2023-08-07T07:05:33;15.50;99.90
5128;DHT22;2582;48.770;9.190;2023-08-07T07:07:58;15.50;99.90
5128;DHT22;2582;48.770;9.190;2023-08-07T07:10:24;15.50;99.90
5128;DHT22;2582;48.770;9.190;2023-08-07T07:12:50;15.60;99.90
5128;DHT22;2582;48.770;9.190;2023-08-07T07:15:15;15.80;99.90
5128;DHT22;2582;48.770;9.190;2023-08-07T07:17:41;15.60;99.90
5128;DHT22;2582;48.770;9.190;2023-08-07T07:20:07;15.70;99.90
5128;DHT22;2582;48.770;9.190;2023-08-07T07:22:36;15.50;99.90
5128;DHT22;2582;48.770;9.190;2023-08-07T07:25:02;15.60;99.90
5128;DHT22;2582;48.770;9.190;2023-08-07T07:27:28;15.50;99.90
5128;DHT22;2582;48.770;9.190;2023-08-07T07:29:53;15.60;99.90
5128;DHT22;2582;48.770;9.190;2023-08-07T07:32:19;15.80;99.90
5128;DHT22;2582;48.770;9.190;2023-08-07T07:34:44;15.80;99.90
5128;DHT22;2582;48.770;9.190;2023-08-07T07:37:10;15.60;99.90
5128;DHT22;2582;48.770;9.190;2023-08-07T07:39:36;15.70;99.90
5128;DHT22;2582;48.770;9.190;2023-08-07T07:42:01;15.70;99.90
5128;DHT22;2582;48.770;9.190;2023-08-07T07:44:28;15.80;99.90
5128;DHT22;2582;48.770;9.190;2023-08-07T07:46:54;15.90;99.90
5128;DHT22;2582;48.770;9.190;2023-08-07T07:49:20;16.00;99.90
5128;DHT22;2582;48.770;9.190;2023-08-07T07:51:45;16.20;99.90
5128;DHT22;2582;48.770;9.190;2023-08-07T07:54:11;16.30;99.90
5128;DHT22;2582;48.770;9.190;2023-08-07T07:56:37;16.40;99.90
5128;DHT22;2582;48.770;9.190;2023-08-07T07:59:02;16.30;99.90
5128;DHT22;2582;48.770;9.190;2023-08-07T08:01:28;16.40;99.90
5128;DHT22;2582;48.770;9.190;2023-08-07T08:03:54;16.40;99.90
5128;DHT22;2582;48.770;9.190;2023-08-07T08:06:19;16.40;99.90
5128;DHT22;2582;48.770;9.190;2023-08-07T08:08:45;16.60;99.90
5128;DHT22;2582;48.770;9.190;2023-08-07T08:11:10;16.50;99.90
5128;DHT22;2582;48.770;9.190;2023-08-07T08:13:36;16.30;99.90
5128;DHT22;2582;48.770;9.190;2023-08-07T08:16:04;16.00;99.90
5128;DHT22;2582;48.770;9.190;2023-08-07T08:18:30;15.90;99.90
5128;DHT22;2582;48.770;9.190;2023-08-07T08:20:55;15.90;99.90
5128;DHT22;2582;48.770;9.190;2023-08-07T08:23:21;15.70;99.90
5128;DHT22;2582;48.770;9.190;2023-08-07T08:25:48;15.80;99.90
5128;DHT22;2582;48.770;9.190;2023-08-07T08:28:13;15.80;99.90
5128;DHT22;2582;48.770;9.190;2023-08-07T08:30:39;16.10;99.90
5128;DHT22;2582;48.770;9.190;2023-08-07T08:33:05;16.30;99.90
5128;DHT22;2582;48.770;9.190;2023-08-07T08:35:31;16.50;99.90
5128;DHT22;2582;48.770;9.190;2023-08-07T08:37:57;16.80;99.90
5128;DHT22;2582;48.770;9.190;2023-08-07T08:40:23;16.90;99.90
5128;DHT22;2582;48.770;9.190;2023-08-07T08:42:50;17.00;99.90
5128;DHT22;2582;48.770;9.190;2023-08-07T08:45:16;16.90;99.90
5128;DHT22;2582;48.770;9.190;2023-08-07T08:47:46;16.70;99.90
5128;DHT22;2582;48.770;9.190;2023-08-07T08:50:13;16.60;99.90
5128;DHT22;2582;48.770;9.190;2023-08-07T08:52:44;16.60;99.90
5128;DHT22;2582;48.770;9.190;2023-08-07T08:55:11;16.80;99.90
5128;DHT22;2582;48.770;9.190;2023-08-07T08:57:37;16.80;99.90
5128;DHT22;2582;48.770;9.190;2023-08-07T09:00:05;16.80;99.90
5128;DHT22;2582;48.770;9.190;2023-08-07T09:02:38;16.90;99.90
5128;DHT22;2582;48.770;9.190;2023-08-07T09:05:04;17.00;99.90
5128;DHT22;2582;48.770;9.190;2023-08-07T09:07:30;17.20;99.90
5128;DHT22;2582;48.770;9.190;2023-08-07T09:09:57;17.30;99.90
5128;DHT22;2582;48.770;9.190;2023-08-07T09:12:26;17.40;99.90
5128;DHT22;2582;48.770;9.190;2023-08-07T09:14:56;17.80;99.90
5128;DHT22;2582;48.770;9.190;2023-08-07T09:17:28;17.90;99.90
5128;DHT22;2582;48.770;9.190;2023-08-07T09:19:54;18.30;99.90
5128;DHT22;2582;48.770;9.190;2023-08-07T09:22:21;18.30;99.90
5128;DHT22;2582;48.770;9.190;2023-08-07T09:24:46;18.00;99.90
5128;DHT22;2582;48.770;9.190;2023-08-07T09:27:13;18.00;99.90
5128;DHT22;2582;48.770;9.190;2023-08-07T09:29:43;18.00;99.90
5128;DHT22;2582;48.770;9.190;2023-08-07T09:32:11;18.00;99.90
5128;DHT22;2582;48.770;9.190;2023-08-07T09:34:39;18.10;99.90
5128;DHT22;2582;48.770;9.190;2023-08-07T09:37:05;18.20;99.90
5128;DHT22;2582;48.770;9.190;2023-08-07T09:39:30;18.10;99.90
5128;DHT22;2582;48.770;9.190;2023-08-07T09:41:56;17.80;99.30
5128;DHT22;2582;48.770;9.190;2023-08-07T09:44:21;18.10;99.30
5128;DHT22;2582;48.770;9.190;2023-08-07T09:46:47;18.10;99.20
5128;DHT22;2582;48.770;9.190;2023-08-07T09:49:12;18.00;99.50
5128;DHT22;2582;48.770;9.190;2023-08-07T09:51:47;18.00;99.90
5128;DHT22;2582;48.770;9.190;2023-08-07T09:54:15;18.10;99.90
5128;DHT22;2582;48.770;9.190;2023-08-07T09:56:41;17.90;99.90
5128;DHT22;2582;48.770;9.190;2023-08-07T09:59:07;18.00;99.90
5128;DHT22;2582;48.770;9.190;2023-08-07T10:01:35;18.10;99.60
5128;DHT22;2582;48.770;9.190;2023-08-07T10:04:01;18.10;99.90
5128;DHT22;2582;48.770;9.190;2023-08-07T10:06:27;18.00;99.60
5128;DHT22;2582;48.770;9.190;2023-08-07T10:08:54;18.00;99.90
5128;DHT22;2582;48.770;9.190;2023-08-07T10:11:20;18.10;99.90
5128;DHT22;2582;48.770;9.190;2023-08-07T10:13:47;18.40;99.90
5128;DHT22;2582;48.770;9.190;2023-08-07T10:16:13;18.70;99.90
5128;DHT22;2582;48.770;9.190;2023-08-07T10:18:39;19.00;99.30
5128;DHT22;2582;48.770;9.190;2023-08-07T10:21:05;19.40;99.30
5128;DHT22;2582;48.770;9.190;2023-08-07T10:23:35;19.40;98.70
5128;DHT22;2582;48.770;9.190;2023-08-07T10:26:04;19.50;98.00
5128;DHT22;2582;48.770;9.190;2023-08-07T10:28:32;19.60;97.60
5128;DHT22;2582;48.770;9.190;2023-08-07T10:31:04;19.40;97.00
5128;DHT22;2582;48.770;9.190;2023-08-07T10:33:30;19.10;97.30
5128;DHT22;2582;48.770;9.190;2023-08-07T10:35:57;19.00;98.00
5128;DHT22;2582;48.770;9.190;2023-08-07T10:38:25;19.00;98.40
5128;DHT22;2582;48.770;9.190;2023-08-07T10:41:16;19.00;97.50
5128;DHT22;2582;48.770;9.190;2023-08-07T10:43:44;18.70;96.90
5128;DHT22;2582;48.770;9.190;2023-08-07T10:46:12;18.60;96.90
5128;DHT22;2582;48.770;9.190;2023-08-07T10:48:42;18.60;97.30
5128;DHT22;2582;48.770;9.190;2023-08-07T10:51:09;18.50;97.30
5128;DHT22;2582;48.770;9.190;2023-08-07T10:53:40;18.60;97.20
5128;DHT22;2582;48.770;9.190;2023-08-07T10:56:09;18.50;97.40
5128;DHT22;2582;48.770;9.190;2023-08-07T10:58:36;18.30;97.80
5128;DHT22;2582;48.770;9.190;2023-08-07T11:03:51;18.30;97.80
5128;DHT22;2582;48.770;9.190;2023-08-07T11:06:18;18.40;97.10
5128;DHT22;2582;48.770;9.190;2023-08-07T11:08:48;18.60;97.10
5128;DHT22;2582;48.770;9.190;2023-08-07T11:11:13;18.80;97.00
5128;DHT22;2582;48.770;9.190;2023-08-07T11:13:39;18.90;97.00
5128;DHT22;2582;48.770;9.190;2023-08-07T11:16:05;18.90;96.80
5128;DHT22;2582;48.770;9.190;2023-08-07T11:18:31;18.90;97.00
5128;DHT22;2582;48.770;9.190;2023-08-07T11:20:58;18.60;97.20
5128;DHT22;2582;48.770;9.190;2023-08-07T11:23:24;18.40;97.40
5128;DHT22;2582;48.770;9.190;2023-08-07T11:25:53;18.10;98.10
5128;DHT22;2582;48.770;9.190;2023-08-07T11:28:20;18.20;98.60
5128;DHT22;2582;48.770;9.190;2023-08-07T11:30:50;18.20;98.10
5128;DHT22;2582;48.770;9.190;2023-08-07T11:33:19;18.10;98.60
5128;DHT22;2582;48.770;9.190;2023-08-07T11:35:46;18.10;98.70
5128;DHT22;2582;48.770;9.190;2023-08-07T11:38:12;18.00;99.10
5128;DHT22;2582;48.770;9.190;2023-08-07T11:40:37;18.00;99.40
5128;DHT22;2582;48.770;9.190;2023-08-07T11:43:03;18.00;99.90
5128;DHT22;2582;48.770;9.190;2023-08-07T11:45:29;18.10;99.80
5128;DHT22;2582;48.770;9.190;2023-08-07T11:47:55;17.80;99.90
5128;DHT22;2582;48.770;9.190;2023-08-07T11:50:22;17.80;99.90
5128;DHT22;2582;48.770;9.190;2023-08-07T11:52:48;17.60;99.90
5128;DHT22;2582;48.770;9.190;2023-08-07T11:55:14;17.60;99.90
5128;DHT22;2582;48.770;9.190;2023-08-07T11:57:40;17.70;99.90
5128;DHT22;2582;48.770;9.190;2023-08-07T12:00:08;17.80;99.90
5128;DHT22;2582;48.770;9.190;2023-08-07T12:02:44;17.80;99.90
5128;DHT22;2582;48.770;9.190;2023-08-07T12:05:10;17.50;99.90
5128;DHT22;2582;48.770;9.190;2023-08-07T12:07:37;17.30;99.90
5128;DHT22;2582;48.770;9.190;2023-08-07T12:10:06;17.40;99.90
5128;DHT22;2582;48.770;9.190;2023-08-07T12:12:38;17.60;99.90
5128;DHT22;2582;48.770;9.190;2023-08-07T12:15:07;17.50;99.90
5128;DHT22;2582;48.770;9.190;2023-08-07T12:17:33;17.70;99.90
5128;DHT22;2582;48.770;9.190;2023-08-07T12:19:59;17.70;99.90
5128;DHT22;2582;48.770;9.190;2023-08-07T12:22:27;17.60;99.90
5128;DHT22;2582;48.770;9.190;2023-08-07T12:24:55;17.80;99.90
5128;DHT22;2582;48.770;9.190;2023-08-07T12:27:21;17.70;99.90
5128;DHT22;2582;48.770;9.190;2023-08-07T12:29:47;17.70;99.90
5128;DHT22;2582;48.770;9.190;2023-08-07T12:32:12;17.70;99.90
5128;DHT22;2582;48.770;9.190;2023-08-07T12:34:38;17.80;99.90
5128;DHT22;2582;48.770;9.190;2023-08-07T12:37:04;17.90;99.90
5128;DHT22;2582;48.770;9.190;2023-08-07T12:39:30;18.30;99.90
5128;DHT22;2582;48.770;9.190;2023-08-07T12:41:55;18.40;99.90
5128;DHT22;2582;48.770;9.190;2023-08-07T12:44:21;18.50;99.90
5128;DHT22;2582;48.770;9.190;2023-08-07T12:46:46;18.90;99.90
5128;DHT22;2582;48.770;9.190;2023-08-07T12:49:12;19.60;99.90
5128;DHT22;2582;48.770;9.190;2023-08-07T12:51:38;19.60;99.90
5128;DHT22;2582;48.770;9.190;2023-08-07T12:54:03;19.90;99.90
5128;DHT22;2582;48.770;9.190;2023-08-07T12:56:29;20.00;99.90
5128;DHT22;2582;48.770;9.190;2023-08-07T12:58:55;19.90;99.90
5128;DHT22;2582;48.770;9.190;2023-08-07T13:01:20;19.50;99.90
5128;DHT22;2582;48.770;9.190;2023-08-07T13:03:46;19.40;99.90
5128;DHT22;2582;48.770;9.190;2023-08-07T13:06:11;19.70;99.90
5128;DHT22;2582;48.770;9.190;2023-08-07T13:08:37;20.00;99.90
5128;DHT22;2582;48.770;9.190;2023-08-07T13:11:03;20.00;99.90
5128;DHT22;2582;48.770;9.190;2023-08-07T13:13:29;20.30;99.90
5128;DHT22;2582;48.770;9.190;2023-08-07T13:15:56;20.50;99.50
5128;DHT22;2582;48.770;9.190;2023-08-07T13:18:22;20.20;98.80
5128;DHT22;2582;48.770;9.190;2023-08-07T13:20:47;19.80;99.20
5128;DHT22;2582;48.770;9.190;2023-08-07T13:23:13;19.70;99.90
5128;DHT22;2582;48.770;9.190;2023-08-07T13:25:40;19.40;99.90
5128;DHT22;2582;48.770;9.190;2023-08-07T13:28:05;19.10;99.90
5128;DHT22;2582;48.770;9.190;2023-08-07T13:30:35;19.00;99.90
5128;DHT22;2582;48.770;9.190;2023-08-07T13:33:01;19.20;99.90
5128;DHT22;2582;48.770;9.190;2023-08-07T13:35:26;19.20;99.90
5128;DHT22;2582;48.770;9.190;2023-08-07T13:37:52;19.00;99.90
5128;DHT22;2582;48.770;9.190;2023-08-07T13:40:17;19.10;99.90
5128;DHT22;2582;48.770;9.190;2023-08-07T13:42:45;19.00;99.90
5128;DHT22;2582;48.770;9.190;2023-08-07T13:45:12;19.10;99.90
5128;DHT22;2582;48.770;9.190;2023-08-07T13:47:39;19.50;99.90
5128;DHT22;2582;48.770;9.190;2023-08-07T13:50:05;20.90;99.90
5128;DHT22;2582;48.770;9.190;2023-08-07T13:52:31;23.10;95.80
5128;DHT22;2582;48.770;9.190;2023-08-07T13:54:57;22.70;95.80
5128;DHT22;2582;48.770;9.190;2023-08-07T13:57:22;22.10;95.30
5128;DHT22;2582;48.770;9.190;2023-08-07T13:59:48;21.20;96.30
5128;DHT22;2582;48.770;9.190;2023-08-07T14:02:13;21.00;97.10
5128;DHT22;2582;48.770;9.190;2023-08-07T14:04:39;20.80;97.00
5128;DHT22;2582;48.770;9.190;2023-08-07T14:07:05;20.40;97.50
5128;DHT22;2582;48.770;9.190;2023-08-07T14:09:31;20.40;98.00
5128;DHT22;2582;48.770;9.190;2023-08-07T14:11:57;20.50;98.30
5128;DHT22;2582;48.770;9.190;2023-08-07T14:14:23;20.80;98.50
5128;DHT22;2582;48.770;9.190;2023-08-07T14:16:48;20.20;97.30
5128;DHT22;2582;48.770;9.190;2023-08-07T14:19:14;20.20;96.90
5128;DHT22;2582;48.770;9.190;2023-08-07T14:21:39;20.80;97.10
5128;DHT22;2582;48.770;9.190;2023-08-07T14:24:06;22.30;95.10
5128;DHT22;2582;48.770;9.190;2023-08-07T14:26:31;22.90;93.50
5128;DHT22;2582;48.770;9.190;2023-08-07T14:28:57;22.80;93.20
5128;DHT22;2582;48.770;9.190;2023-08-07T14:31:23;22.30;93.30
5128;DHT22;2582;48.770;9.190;2023-08-07T14:33:48;21.60;94.50
5128;DHT22;2582;48.770;9.190;2023-08-07T14:36:14;21.00;95.50
5128;DHT22;2582;48.770;9.190;2023-08-07T14:38:40;20.40;95.60
5128;DHT22;2582;48.770;9.190;2023-08-07T14:41:06;20.20;97.20
5128;DHT22;2582;48.770;9.190;2023-08-07T14:43:31;20.30;97.00
5128;DHT22;2582;48.770;9.190;2023-08-07T14:45:58;20.60;96.50
5128;DHT22;2582;48.770;9.190;2023-08-07T14:48:23;21.10;95.60
5128;DHT22;2582;48.770;9.190;2023-08-07T14:50:49;20.80;95.40
5128;DHT22;2582;48.770;9.190;2023-08-07T14:53:14;20.90;95.90
5128;DHT22;2582;48.770;9.190;2023-08-07T14:55:40;21.10;95.60
5128;DHT22;2582;48.770;9.190;2023-08-07T14:58:07;22.10;94.50
5128;DHT22;2582;48.770;9.190;2023-08-07T15:00:32;22.40;94.70
5128;DHT22;2582;48.770;9.190;2023-08-07T15:02:58;23.50;93.10
5128;DHT22;2582;48.770;9.190;2023-08-07T15:05:23;23.30;93.30
5128;DHT22;2582;48.770;9.190;2023-08-07T15:07:49;24.10;93.00
5128;DHT22;2582;48.770;9.190;2023-08-07T15:10:14;25.20;90.30
5128;DHT22;2582;48.770;9.190;2023-08-07T15:12:40;25.70;87.30
5128;DHT22;2582;48.770;9.190;2023-08-07T15:15:06;26.10;84.30
5128;DHT22;2582;48.770;9.190;2023-08-07T15:17:32;24.80;84.70
5128;DHT22;2582;48.770;9.190;2023-08-07T15:19:58;23.00;89.90
5128;DHT22;2582;48.770;9.190;2023-08-07T15:22:23;22.20;91.50
5128;DHT22;2582;48.770;9.190;2023-08-07T15:24:49;21.70;91.90
5128;DHT22;2582;48.770;9.190;2023-08-07T15:27:15;21.40;93.10
5128;DHT22;2582;48.770;9.190;2023-08-07T15:29:44;21.40;93.50
5128;DHT22;2582;48.770;9.190;2023-08-07T15:32:11;21.40;93.40
5128;DHT22;2582;48.770;9.190;2023-08-07T15:34:39;20.80;93.90
5128;DHT22;2582;48.770;9.190;2023-08-07T15:37:05;20.60;94.40
5128;DHT22;2582;48.770;9.190;2023-08-07T15:39:30;20.50;94.80
5128;DHT22;2582;48.770;9.190;2023-08-07T15:41:56;20.50;95.80
5128;DHT22;2582;48.770;9.190;2023-08-07T15:44:22;20.50;95.30
5128;DHT22;2582;48.770;9.190;2023-08-07T15:46:47;20.60;95.40
5128;DHT22;2582;48.770;9.190;2023-08-07T15:49:13;20.50;95.40
5128;DHT22;2582;48.770;9.190;2023-08-07T15:51:38;20.60;95.90
5128;DHT22;2582;48.770;9.190;2023-08-07T15:54:04;21.20;95.60
5128;DHT22;2582;48.770;9.190;2023-08-07T15:56:29;22.20;94.60
5128;DHT22;2582;48.770;9.190;2023-08-07T15:58:55;24.00;92.40
5128;DHT22;2582;48.770;9.190;2023-08-07T16:01:20;24.10;91.80
5128;DHT22;2582;48.770;9.190;2023-08-07T16:03:46;23.50;91.00